< < Back
Terminal Aerodrome Forecast


Current Version              Previous Versions:   1  2  3  4  5  6  7  8  9  

Terminal Aerodrome Forecast

925
FTUS42 KGSP 031740
TAFGSP
TAF
KGSP 031740Z 0318/0418 01007KT 6SM HZ OVC016
      TEMPO 0318/0322 5SM -RA BR OVC009
     FM032200 06003KT 4SM -RA BR OVC007
     FM040200 14005KT 3SM BR OVC004
     FM040900 22006KT 4SM BR OVC003 WS020/23035KT
     FM041500 22009KT P6SM OVC015=

Latest METAR

714
SAUS70 KWBC 040400 RRE
MTRGSP
METAR KGSP 040353Z 21005KT 3SM BR OVC003 07/07 A3010 RMK AO2 SLP192
T00670067


USA.gov is the U.S. government's official web portal to all federal, state and local government web resources and services.